createdAt,value
2023-04-15T00:01:01.277Z,69.60
2023-04-15T00:03:28.677Z,69.50
2023-04-15T00:05:56.262Z,69.50
2023-04-15T00:08:23.758Z,69.70
2023-04-15T00:10:50.957Z,69.80
2023-04-15T00:13:17.800Z,69.70
2023-04-15T00:15:44.751Z,69.70
2023-04-15T00:18:11.660Z,70.00
2023-04-15T00:20:38.585Z,70.20
2023-04-15T00:23:05.677Z,70.40
2023-04-15T00:25:33.008Z,70.50
2023-04-15T00:28:00.142Z,70.40
2023-04-15T00:30:26.987Z,70.60
2023-04-15T00:32:53.961Z,70.70
2023-04-15T00:35:24.013Z,70.80
2023-04-15T00:37:51.603Z,70.90
2023-04-15T00:40:21.111Z,70.90
2023-04-15T00:42:48.069Z,70.90
2023-04-15T00:45:15.675Z,70.80
2023-04-15T00:47:44.212Z,70.80
2023-04-15T00:50:12.606Z,70.30
2023-04-15T00:52:40.673Z,70.40
2023-04-15T00:55:08.678Z,70.30
2023-04-15T00:57:36.496Z,69.90
2023-04-15T01:00:08.042Z,69.90
2023-04-15T01:02:36.595Z,70.30
2023-04-15T01:05:04.794Z,70.20
2023-04-15T01:07:32.123Z,70.40
2023-04-15T01:09:59.205Z,70.40
2023-04-15T01:12:27.563Z,70.80
2023-04-15T01:14:55.517Z,70.80
2023-04-15T01:17:23.016Z,70.90
2023-04-15T01:19:50.145Z,70.90
2023-04-15T01:22:17.709Z,70.50
2023-04-15T01:24:56.314Z,70.20
2023-04-15T01:27:23.512Z,70.20
2023-04-15T01:29:50.335Z,70.20
2023-04-15T01:32:17.285Z,70.10
2023-04-15T01:34:44.465Z,70.10
2023-04-15T01:37:11.781Z,70.10
2023-04-15T01:39:39.453Z,70.20
2023-04-15T01:42:06.991Z,70.10
2023-04-15T01:44:33.834Z,70.40
2023-04-15T01:47:00.818Z,70.60
2023-04-15T01:49:27.855Z,70.50
2023-04-15T01:51:54.955Z,70.80
2023-04-15T01:54:21.820Z,70.80
2023-04-15T01:56:48.761Z,70.90
2023-04-15T01:59:15.680Z,71.00
2023-04-15T02:01:42.523Z,70.90
2023-04-15T02:04:16.431Z,70.70
2023-04-15T02:06:43.890Z,70.80
2023-04-15T02:09:10.954Z,70.60
2023-04-15T02:11:38.025Z,70.60
2023-04-15T02:14:05.738Z,70.50
2023-04-15T02:16:33.629Z,70.60
2023-04-15T02:21:56.394Z,71.10
2023-04-15T02:24:23.557Z,71.10
2023-04-15T02:26:50.728Z,71.50
2023-04-15T02:29:17.620Z,71.40
2023-04-15T02:31:45.203Z,71.30
2023-04-15T02:34:12.094Z,71.70
2023-04-15T02:36:44.403Z,71.90
2023-04-15T02:39:12.771Z,72.50
2023-04-15T02:41:39.617Z,72.20
2023-04-15T02:44:10.858Z,72.40
2023-04-15T02:46:38.360Z,72.30
2023-04-15T02:49:05.404Z,72.10
2023-04-15T02:51:32.493Z,72.40
2023-04-15T02:53:59.584Z,72.60
2023-04-15T02:56:27.314Z,72.80
2023-04-15T02:58:56.184Z,72.60
2023-04-15T03:01:23.790Z,72.70
2023-04-15T03:03:50.870Z,72.70
2023-04-15T03:06:17.855Z,73.40
2023-04-15T03:08:45.194Z,72.70
2023-04-15T03:11:14.988Z,72.80
2023-04-15T03:13:43.286Z,72.90
2023-04-15T03:16:21.103Z,73.20
2023-04-15T03:18:48.123Z,73.50
2023-04-15T03:21:15.459Z,73.60
2023-04-15T03:23:42.359Z,73.80
2023-04-15T03:26:09.436Z,73.50
2023-04-15T03:28:36.537Z,74.20
2023-04-15T03:31:03.472Z,73.80
2023-04-15T03:33:31.001Z,73.60
2023-04-15T03:35:58.047Z,73.70
2023-04-15T03:38:24.966Z,73.20
2023-04-15T03:40:52.023Z,73.10
2023-04-15T03:43:18.832Z,73.70
2023-04-15T03:45:45.736Z,72.90
2023-04-15T03:48:17.819Z,72.70
2023-04-15T03:50:45.390Z,72.70
2023-04-15T03:53:12.406Z,72.80
2023-04-15T03:55:39.215Z,72.90
2023-04-15T03:58:06.501Z,73.00
2023-04-15T04:00:33.505Z,72.90
2023-04-15T04:03:00.681Z,72.90
2023-04-15T04:05:27.665Z,73.00
2023-04-15T04:07:54.508Z,73.00
2023-04-15T04:10:21.559Z,72.90
2023-04-15T04:12:48.376Z,72.90
2023-04-15T04:15:15.979Z,72.70
2023-04-15T04:17:42.862Z,73.60
2023-04-15T04:20:10.035Z,73.10
2023-04-15T04:22:40.602Z,72.90
2023-04-15T04:25:08.713Z,72.90
2023-04-15T04:27:35.889Z,73.10
2023-04-15T04:30:03.136Z,72.80
2023-04-15T04:32:30.252Z,72.70
2023-04-15T04:34:57.220Z,72.60
2023-04-15T04:37:24.662Z,72.60
2023-04-15T04:39:51.550Z,72.90
2023-04-15T04:42:18.468Z,73.60
2023-04-15T04:44:45.367Z,73.00
2023-04-15T04:47:12.203Z,72.90
2023-04-15T04:49:39.314Z,72.90
2023-04-15T04:52:06.579Z,72.90
2023-04-15T04:54:33.800Z,72.90
2023-04-15T04:57:00.857Z,72.90
2023-04-15T04:59:28.178Z,72.80
2023-04-15T05:01:55.107Z,72.70
2023-04-15T05:04:22.048Z,72.20
2023-04-15T05:06:48.954Z,72.30
2023-04-15T05:09:16.025Z,72.10
2023-04-15T05:11:42.910Z,71.80
2023-04-15T05:14:09.967Z,71.90
2023-04-15T05:16:36.864Z,72.00
2023-04-15T05:19:03.789Z,71.90
2023-04-15T05:21:31.698Z,71.80
2023-04-15T05:23:58.503Z,71.90
2023-04-15T05:26:25.417Z,72.00
2023-04-15T05:28:52.259Z,72.00
2023-04-15T05:31:19.499Z,72.30
2023-04-15T05:33:46.405Z,72.50
2023-04-15T05:36:13.405Z,72.70
2023-04-15T05:38:40.218Z,73.20
2023-04-15T05:41:07.178Z,73.70
2023-04-15T05:43:34.112Z,73.90
2023-04-15T05:46:01.164Z,74.10
2023-04-15T05:48:28.090Z,74.10
2023-04-15T05:50:55.142Z,73.70
2023-04-15T05:53:22.429Z,73.30
2023-04-15T05:55:49.269Z,73.20
2023-04-15T05:58:16.258Z,72.50
2023-04-15T06:00:43.826Z,71.60
2023-04-15T06:03:11.825Z,71.40
2023-04-15T06:05:38.856Z,71.10
2023-04-15T06:08:05.927Z,71.20
2023-04-15T06:10:36.598Z,71.30
2023-04-15T06:13:04.281Z,70.70
2023-04-15T06:15:31.700Z,70.70
2023-04-15T06:17:58.674Z,71.00
2023-04-15T06:20:25.682Z,71.10
2023-04-15T06:22:52.559Z,71.00
2023-04-15T06:25:19.907Z,71.10
2023-04-15T06:27:46.821Z,71.10
2023-04-15T06:30:13.813Z,70.50
2023-04-15T06:32:40.877Z,70.60
2023-04-15T06:35:08.235Z,70.90
2023-04-15T06:37:35.010Z,70.60
2023-04-15T06:40:01.930Z,70.10
2023-04-15T06:42:28.766Z,70.10
2023-04-15T06:44:55.702Z,69.90
2023-04-15T06:47:22.813Z,69.60
2023-04-15T06:49:49.747Z,69.30
2023-04-15T06:52:16.802Z,69.10
2023-04-15T06:54:43.756Z,68.90
2023-04-15T06:57:10.802Z,68.40
2023-04-15T06:59:38.145Z,68.50
2023-04-15T07:02:05.007Z,68.20
2023-04-15T07:04:32.863Z,68.00
2023-04-15T07:07:00.752Z,68.00
2023-04-15T07:09:27.876Z,68.10
2023-04-15T07:11:54.771Z,67.90
2023-04-15T07:14:21.731Z,68.00
2023-04-15T07:16:48.643Z,67.90
2023-04-15T07:19:15.711Z,68.20
2023-04-15T07:21:43.154Z,67.80
2023-04-15T07:24:10.744Z,67.60
2023-04-15T07:26:37.643Z,68.40
2023-04-15T07:29:04.494Z,69.70
2023-04-15T07:31:31.682Z,67.60
2023-04-15T07:33:58.787Z,67.60
2023-04-15T07:36:25.828Z,67.40
2023-04-15T07:38:55.185Z,66.90
2023-04-15T07:41:22.545Z,66.50
2023-04-15T07:43:49.825Z,66.40
2023-04-15T07:46:16.826Z,66.70
2023-04-15T07:48:43.842Z,66.40
2023-04-15T07:51:10.919Z,66.10
2023-04-15T07:53:38.160Z,66.20
2023-04-15T07:56:05.746Z,65.80
2023-04-15T07:58:32.570Z,65.60
2023-04-15T08:00:59.469Z,65.40
2023-04-15T08:03:26.801Z,65.40
2023-04-15T08:05:54.474Z,65.30
2023-04-15T08:08:22.314Z,65.90
2023-04-15T08:10:52.064Z,65.70
2023-04-15T08:13:19.686Z,64.70
2023-04-15T08:31:01.460Z,64.40
2023-04-15T08:33:28.943Z,64.40
2023-04-15T08:35:55.783Z,64.80
2023-04-15T08:38:22.994Z,64.50
2023-04-15T08:40:50.223Z,64.10
2023-04-15T08:43:28.571Z,64.80
2023-04-15T08:45:56.708Z,64.70
2023-04-15T08:48:24.608Z,64.90
2023-04-15T08:50:52.174Z,65.40
2023-04-15T08:53:19.437Z,65.20
2023-04-15T08:55:50.570Z,65.70
2023-04-15T08:58:19.157Z,65.60
2023-04-15T09:00:46.607Z,65.90
2023-04-15T09:03:13.906Z,67.40
2023-04-15T09:05:41.819Z,65.70
2023-04-15T09:08:09.409Z,65.40
2023-04-15T09:10:37.060Z,66.00
2023-04-15T09:13:04.545Z,66.00
2023-04-15T09:15:33.405Z,65.40
2023-04-15T09:18:00.407Z,64.90
2023-04-15T09:20:28.036Z,64.70
2023-04-15T09:22:54.934Z,65.00
2023-04-15T09:25:21.931Z,66.30
2023-04-15T09:27:53.412Z,65.50
2023-04-15T09:30:20.537Z,65.30
2023-04-15T09:32:55.216Z,65.10
2023-04-15T09:35:23.650Z,65.20
2023-04-15T09:37:51.639Z,67.00
2023-04-15T09:40:36.033Z,66.40
2023-04-15T09:43:07.241Z,66.50
2023-04-15T09:45:35.960Z,66.10
2023-04-15T09:48:28.851Z,66.00
2023-04-15T09:51:00.486Z,65.90
2023-04-15T09:53:30.471Z,66.00
2023-04-15T09:56:03.333Z,66.30
2023-04-15T09:58:33.267Z,66.30
2023-04-15T10:01:02.979Z,66.20
2023-04-15T10:03:34.337Z,66.50
2023-04-15T10:06:03.543Z,66.60
2023-04-15T10:08:33.670Z,66.80
2023-04-15T10:11:04.317Z,67.30
2023-04-15T10:13:37.299Z,67.20
2023-04-15T10:16:10.850Z,67.10
2023-04-15T10:18:48.440Z,67.10
2023-04-15T10:21:18.578Z,67.60
2023-04-15T10:23:46.784Z,68.10
2023-04-15T10:26:17.628Z,67.70
2023-04-15T10:28:49.671Z,67.30
2023-04-15T10:31:18.519Z,65.90
2023-04-15T10:33:47.510Z,66.00
2023-04-15T10:36:15.370Z,66.30
2023-04-15T10:38:43.876Z,66.30
2023-04-15T10:41:25.570Z,66.90
2023-04-15T10:44:02.829Z,67.60
2023-04-15T10:46:40.152Z,69.10
2023-04-15T10:49:08.950Z,69.00
2023-04-15T10:51:41.747Z,69.60
2023-04-15T10:54:39.634Z,71.30
2023-04-15T10:57:09.319Z,71.50
2023-04-15T10:59:39.372Z,70.40
2023-04-15T11:02:07.687Z,70.40
2023-04-15T11:04:55.216Z,71.30
2023-04-15T11:07:39.777Z,72.20
2023-04-15T11:10:18.770Z,73.50
2023-04-15T11:12:46.021Z,75.10
2023-04-15T11:15:36.011Z,75.40
2023-04-15T11:18:19.190Z,75.60
2023-04-15T11:20:54.714Z,75.10
2023-04-15T11:23:34.061Z,74.80
2023-04-15T11:26:05.513Z,76.10
2023-04-15T11:28:33.062Z,76.70
2023-04-15T11:31:06.710Z,77.00
2023-04-15T11:33:33.634Z,77.30
2023-04-15T11:36:01.915Z,76.40
2023-04-15T11:38:28.928Z,76.10
2023-04-15T11:40:56.257Z,75.80
2023-04-15T11:43:23.796Z,75.60
2023-04-15T11:45:51.569Z,75.20
2023-04-15T11:48:19.498Z,75.20
2023-04-15T11:50:46.539Z,75.40
2023-04-15T11:53:14.289Z,76.10
2023-04-15T11:55:47.026Z,76.00
2023-04-15T11:58:18.527Z,75.00
2023-04-15T12:00:59.994Z,74.70
2023-04-15T12:03:33.035Z,74.90
2023-04-15T12:06:19.474Z,74.20
2023-04-15T12:08:55.934Z,72.00
2023-04-15T12:11:41.432Z,72.10
2023-04-15T12:14:22.682Z,71.00
2023-04-15T12:16:53.850Z,69.80
2023-04-15T12:19:37.499Z,70.70
2023-04-15T12:22:04.417Z,70.70
2023-04-15T12:24:32.627Z,71.50
2023-04-15T12:27:06.600Z,71.50
2023-04-15T12:29:34.928Z,68.30
2023-04-15T12:32:14.914Z,68.60
2023-04-15T12:34:49.202Z,69.00
2023-04-15T12:37:16.460Z,69.80
2023-04-15T12:39:47.968Z,69.90
2023-04-15T12:42:16.473Z,70.60
2023-04-15T12:44:43.752Z,70.20
2023-04-15T12:47:13.283Z,69.30
2023-04-15T12:49:40.801Z,69.20
2023-04-15T12:52:07.722Z,70.40
2023-04-15T12:54:36.107Z,70.60
2023-04-15T12:57:06.870Z,70.90
2023-04-15T12:59:36.217Z,71.50
2023-04-15T13:02:03.471Z,72.30
2023-04-15T13:04:31.411Z,72.80
2023-04-15T13:06:58.754Z,73.80
2023-04-15T13:09:26.047Z,74.50
2023-04-15T13:11:54.172Z,74.80
2023-04-15T13:14:21.215Z,75.00
2023-04-15T13:16:48.229Z,75.20
2023-04-15T13:19:15.381Z,75.40
2023-04-15T13:21:42.203Z,75.70
2023-04-15T13:24:09.750Z,75.80
2023-04-15T13:26:36.677Z,75.90
2023-04-15T13:29:04.834Z,76.10
2023-04-15T13:31:31.721Z,76.30
2023-04-15T13:33:58.637Z,76.10
2023-04-15T13:36:26.435Z,75.90
2023-04-15T13:38:53.435Z,76.00
2023-04-15T13:41:21.217Z,76.10
2023-04-15T13:43:48.023Z,76.40
2023-04-15T13:46:15.149Z,76.80
2023-04-15T13:48:42.473Z,77.00
2023-04-15T13:51:09.384Z,76.80
2023-04-15T13:53:38.398Z,76.80
2023-04-15T13:56:10.016Z,76.70
2023-04-15T13:58:38.354Z,76.50
2023-04-15T14:01:06.775Z,76.50
2023-04-15T14:03:38.845Z,76.00
2023-04-15T14:06:06.351Z,75.80
2023-04-15T14:08:33.489Z,76.00
2023-04-15T14:11:00.580Z,75.90
2023-04-15T14:13:27.618Z,76.30
2023-04-15T14:15:54.491Z,76.30
2023-04-15T14:18:21.470Z,75.80
2023-04-15T14:20:48.279Z,75.80
2023-04-15T14:23:15.159Z,75.90
2023-04-15T14:25:42.012Z,75.70
2023-04-15T14:28:09.112Z,75.90
2023-04-15T14:30:36.030Z,75.50
2023-04-15T14:33:03.422Z,75.80
2023-04-15T14:35:31.022Z,76.00
2023-04-15T14:37:57.860Z,76.00
2023-04-15T14:40:24.733Z,76.40
2023-04-15T14:42:51.611Z,76.90
2023-04-15T14:45:18.451Z,76.90
2023-04-15T14:47:45.401Z,77.00
2023-04-15T14:50:12.318Z,76.90
2023-04-15T14:52:39.280Z,76.90
2023-04-15T14:55:11.163Z,76.90
2023-04-15T14:57:39.164Z,76.50
2023-04-15T15:00:07.482Z,76.20
2023-04-15T15:02:39.695Z,75.90
2023-04-15T15:05:08.706Z,75.50
2023-04-15T15:07:40.745Z,75.20
2023-04-15T15:10:08.089Z,76.10
2023-04-15T15:12:35.072Z,75.40
2023-04-15T15:15:09.544Z,75.10
2023-04-15T15:17:43.125Z,75.30
2023-04-15T15:20:10.522Z,75.40
2023-04-15T15:22:37.317Z,75.60
2023-04-15T15:25:04.773Z,75.60
2023-04-15T15:27:32.095Z,75.50
2023-04-15T15:29:59.494Z,75.70
2023-04-15T15:32:26.497Z,75.80
2023-04-15T15:34:53.517Z,75.40
2023-04-15T15:37:20.420Z,75.10
2023-04-15T15:39:47.972Z,74.80
2023-04-15T15:42:14.951Z,75.10
2023-04-15T15:44:41.799Z,75.30
2023-04-15T15:47:08.738Z,75.00
2023-04-15T15:49:35.593Z,75.00
2023-04-15T15:52:02.651Z,75.10
2023-04-15T15:54:29.797Z,74.90
2023-04-15T15:56:57.658Z,74.90
2023-04-15T15:59:25.572Z,74.60
2023-04-15T16:01:52.571Z,74.50
2023-04-15T16:04:19.845Z,74.50
2023-04-15T16:06:47.003Z,74.50
2023-04-15T16:09:14.044Z,74.40
2023-04-15T16:11:41.582Z,74.60
2023-04-15T16:14:08.503Z,74.40
2023-04-15T16:16:35.599Z,74.50
2023-04-15T16:19:02.891Z,74.70
2023-04-15T16:21:30.550Z,75.20
2023-04-15T16:23:57.577Z,75.30
2023-04-15T16:26:24.490Z,75.20
2023-04-15T16:28:51.375Z,75.20
2023-04-15T16:31:18.294Z,75.10
2023-04-15T16:33:45.320Z,75.20
2023-04-15T16:36:12.234Z,75.40
2023-04-15T16:38:39.181Z,75.80
2023-04-15T16:41:06.004Z,75.50
2023-04-15T16:43:32.953Z,75.50
2023-04-15T16:45:59.828Z,75.70
2023-04-15T16:48:27.058Z,75.90
2023-04-15T16:50:54.077Z,75.80
2023-04-15T16:53:20.913Z,75.70
2023-04-15T16:55:47.845Z,75.20
2023-04-15T16:58:14.659Z,75.40
2023-04-15T17:00:41.706Z,75.20
2023-04-15T17:03:08.836Z,75.30
2023-04-15T17:05:36.096Z,75.10
2023-04-15T17:08:03.097Z,75.10
2023-04-15T17:10:31.048Z,75.10
2023-04-15T17:12:59.851Z,75.10
2023-04-15T17:15:27.492Z,75.60
2023-04-15T17:17:54.704Z,75.90
2023-04-15T17:20:21.751Z,76.10
2023-04-15T17:22:49.263Z,76.30
2023-04-15T17:25:16.241Z,76.50
2023-04-15T17:27:43.265Z,76.40
2023-04-15T17:30:10.709Z,76.30
2023-04-15T17:32:40.030Z,76.50
2023-04-15T17:35:07.710Z,76.10
2023-04-15T17:37:34.890Z,76.00
2023-04-15T17:40:02.023Z,76.30
2023-04-15T17:42:28.966Z,76.20
2023-04-15T17:44:55.804Z,76.10
2023-04-15T17:47:22.689Z,76.40
2023-04-15T17:49:49.614Z,76.60
2023-04-15T17:52:16.870Z,76.50
2023-04-15T17:54:43.733Z,76.40
2023-04-15T17:57:10.728Z,76.50
2023-04-15T17:59:37.582Z,76.50
2023-04-15T18:02:04.632Z,76.60
2023-04-15T18:04:31.741Z,76.80
2023-04-15T18:06:58.848Z,77.00
2023-04-15T18:09:26.974Z,77.10
2023-04-15T18:11:53.834Z,77.20
2023-04-15T18:14:33.709Z,76.90
2023-04-15T18:17:02.764Z,76.80
2023-04-15T18:19:30.688Z,77.10
2023-04-15T18:21:59.856Z,77.80
2023-04-15T18:24:26.924Z,77.30
2023-04-15T18:26:53.929Z,76.80
2023-04-15T18:29:20.893Z,77.10
2023-04-15T18:31:48.000Z,77.20
2023-04-15T18:34:14.899Z,77.40
2023-04-15T18:36:41.892Z,77.50
2023-04-15T18:39:08.879Z,77.30
2023-04-15T18:41:35.714Z,77.00
2023-04-15T18:44:02.640Z,77.00
2023-04-15T18:46:29.561Z,77.20
2023-04-15T18:48:56.503Z,77.50
2023-04-15T18:51:23.509Z,77.60
2023-04-15T18:53:50.512Z,77.70
2023-04-15T18:56:17.556Z,78.10
2023-04-15T18:59:08.586Z,78.30
2023-04-15T19:01:32.474Z,78.70
2023-04-15T19:03:59.613Z,78.90
2023-04-15T19:06:27.244Z,79.00
2023-04-15T19:08:54.651Z,79.90
2023-04-15T19:11:26.709Z,79.30
2023-04-15T19:13:54.451Z,79.40
2023-04-15T19:16:21.333Z,79.50
2023-04-15T19:18:48.253Z,79.50
2023-04-15T19:21:15.638Z,79.60
2023-04-15T19:23:45.537Z,79.60
2023-04-15T19:26:12.557Z,79.70
2023-04-15T19:28:39.503Z,79.60
2023-04-15T19:31:06.794Z,79.50
2023-04-15T19:33:33.903Z,79.70
2023-04-15T19:36:06.183Z,79.70
2023-04-15T19:38:35.886Z,79.60
2023-04-15T19:41:02.713Z,79.50
2023-04-15T19:43:29.879Z,79.60
2023-04-15T19:45:56.832Z,79.90
2023-04-15T19:48:25.200Z,80.10
2023-04-15T19:50:52.154Z,80.00
2023-04-15T19:53:19.136Z,80.20
2023-04-15T19:55:47.172Z,80.20
2023-04-15T19:58:14.355Z,80.20
2023-04-15T20:00:41.209Z,80.00
2023-04-15T20:03:08.273Z,79.90
2023-04-15T20:05:35.747Z,80.00
2023-04-15T20:08:02.845Z,80.30
2023-04-15T20:10:31.488Z,80.40
2023-04-15T20:12:58.407Z,80.30
2023-04-15T20:15:25.319Z,80.40
2023-04-15T20:17:52.295Z,80.50
2023-04-15T20:20:19.675Z,80.50
2023-04-15T20:22:46.483Z,80.50
2023-04-15T20:25:13.774Z,80.40
2023-04-15T20:27:40.676Z,80.60
2023-04-15T20:30:08.083Z,80.80
2023-04-15T20:32:36.124Z,80.90
2023-04-15T20:35:04.866Z,80.90
2023-04-15T20:37:33.531Z,81.10
2023-04-15T20:40:01.675Z,81.00
2023-04-15T20:42:32.105Z,81.00
2023-04-15T20:44:58.989Z,81.60
2023-04-15T20:47:26.285Z,80.90
2023-04-15T20:49:54.029Z,80.80
2023-04-15T20:52:20.862Z,81.10
2023-04-15T20:54:47.913Z,81.20
2023-04-15T20:57:14.818Z,81.20
2023-04-15T20:59:41.707Z,81.00
2023-04-15T21:02:08.602Z,81.30
2023-04-15T21:04:35.925Z,81.10
2023-04-15T21:07:02.787Z,81.20
2023-04-15T21:09:29.678Z,81.40
2023-04-15T21:12:01.446Z,81.50
2023-04-15T21:14:28.838Z,81.50
2023-04-15T21:16:58.094Z,81.50
2023-04-15T21:19:25.026Z,81.50
2023-04-15T21:21:52.260Z,81.60
2023-04-15T21:24:19.186Z,81.70
2023-04-15T21:26:46.080Z,81.50
2023-04-15T21:29:13.274Z,81.70
2023-04-15T21:31:40.802Z,81.70
2023-04-15T21:34:07.783Z,81.70
2023-04-15T21:36:35.352Z,81.50
2023-04-15T21:39:02.399Z,81.50
2023-04-15T21:41:31.116Z,81.60
2023-04-15T21:43:58.045Z,81.50
2023-04-15T21:46:32.595Z,81.60
2023-04-15T21:49:00.390Z,81.50
2023-04-15T21:51:27.769Z,81.50
2023-04-15T21:53:54.698Z,81.70
2023-04-15T21:56:24.032Z,82.40
2023-04-15T21:58:54.168Z,81.70
2023-04-15T22:01:21.169Z,81.60
2023-04-15T22:03:48.227Z,81.60
2023-04-15T22:06:15.829Z,81.70
2023-04-15T22:08:55.352Z,81.60
2023-04-15T22:11:28.509Z,81.80
2023-04-15T22:13:56.893Z,82.10
2023-04-15T22:16:25.546Z,82.00
2023-04-15T22:18:52.559Z,81.90
2023-04-15T22:21:19.442Z,81.90
2023-04-15T22:23:47.622Z,81.70
2023-04-15T22:26:14.611Z,81.90
2023-04-15T22:28:41.751Z,81.90
2023-04-15T22:31:08.788Z,82.10
2023-04-15T22:33:35.756Z,82.20
2023-04-15T22:36:02.707Z,82.40
2023-04-15T22:38:29.489Z,82.60
2023-04-15T22:40:56.416Z,82.80
2023-04-15T22:43:23.243Z,83.50
2023-04-15T22:45:54.763Z,82.70
2023-04-15T22:48:22.210Z,82.80
2023-04-15T22:50:49.359Z,82.90
2023-04-15T22:53:19.527Z,83.00
2023-04-15T22:55:49.481Z,83.10
2023-04-15T22:58:18.248Z,82.80
2023-04-15T23:00:45.426Z,82.50
2023-04-15T23:03:12.639Z,82.60
2023-04-15T23:05:42.614Z,82.50
2023-04-15T23:08:09.488Z,82.40
2023-04-15T23:10:36.345Z,82.60
2023-04-15T23:13:03.174Z,82.80
2023-04-15T23:15:30.296Z,82.80
2023-04-15T23:17:57.176Z,82.90
2023-04-15T23:20:24.155Z,83.00
2023-04-15T23:22:50.960Z,82.90
2023-04-15T23:25:17.898Z,83.00
2023-04-15T23:27:44.860Z,83.10
2023-04-15T23:30:11.843Z,83.00
2023-04-15T23:32:38.810Z,83.20
2023-04-15T23:35:06.113Z,83.50
2023-04-15T23:37:32.958Z,83.60
2023-04-15T23:39:59.941Z,83.90
2023-04-15T23:42:27.070Z,83.80
2023-04-15T23:44:54.000Z,83.90
2023-04-15T23:47:21.518Z,84.00
2023-04-15T23:49:48.439Z,84.30
2023-04-15T23:52:15.409Z,84.60
2023-04-15T23:54:42.420Z,84.70
2023-04-15T23:57:09.294Z,85.00
2023-04-15T23:59:36.253Z,85.20
